createdAt,value
2022-10-29T00:00:39.053Z,0.00
2022-10-29T00:01:39.156Z,0.00
2022-10-29T00:02:39.061Z,0.00
2022-10-29T00:03:39.045Z,0.00
2022-10-29T00:04:38.998Z,0.00
2022-10-29T00:05:38.974Z,0.00
2022-10-29T00:06:38.985Z,0.00
2022-10-29T00:07:38.965Z,0.00
2022-10-29T00:08:38.950Z,0.00
2022-10-29T00:09:38.966Z,0.00
2022-10-29T00:10:38.927Z,0.00
2022-10-29T00:11:38.911Z,0.00
2022-10-29T00:12:38.915Z,0.00
2022-10-29T00:13:38.884Z,0.00
2022-10-29T00:14:38.882Z,0.00
2022-10-29T00:15:38.910Z,0.00
2022-10-29T00:16:38.877Z,0.00
2022-10-29T00:17:38.847Z,0.00
2022-10-29T00:18:38.839Z,0.00
2022-10-29T00:19:38.815Z,0.00
2022-10-29T00:20:38.821Z,0.00
2022-10-29T00:21:38.816Z,0.00
2022-10-29T00:22:38.787Z,0.00
2022-10-29T00:23:38.775Z,0.00
2022-10-29T00:24:38.779Z,0.00
2022-10-29T00:25:38.752Z,0.00
2022-10-29T00:26:38.768Z,0.00
2022-10-29T00:27:38.757Z,0.00
2022-10-29T00:28:38.735Z,0.00
2022-10-29T00:29:38.708Z,0.00
2022-10-29T00:30:38.695Z,0.00
2022-10-29T00:31:38.797Z,0.00
2022-10-29T00:32:38.741Z,0.00
2022-10-29T00:33:38.672Z,0.00
2022-10-29T00:34:38.657Z,0.00
2022-10-29T00:35:38.666Z,0.00
2022-10-29T00:36:38.640Z,0.00
2022-10-29T00:37:38.619Z,0.00
2022-10-29T00:38:38.631Z,0.00
2022-10-29T00:39:38.597Z,0.00
2022-10-29T00:40:38.597Z,0.00
2022-10-29T00:41:38.587Z,0.00
2022-10-29T00:42:38.589Z,0.00
2022-10-29T00:43:38.579Z,0.00
2022-10-29T00:44:38.549Z,0.00
2022-10-29T00:45:38.531Z,0.00
2022-10-29T00:47:38.516Z,0.00
2022-10-29T00:48:38.494Z,0.00
2022-10-29T00:49:38.508Z,0.00
2022-10-29T00:50:38.477Z,0.00
2022-10-29T00:51:38.484Z,0.00
2022-10-29T00:52:38.457Z,0.00
2022-10-29T00:53:38.465Z,0.00
2022-10-29T00:54:38.438Z,0.00
2022-10-29T00:55:38.432Z,0.00
2022-10-29T00:56:38.412Z,0.00
2022-10-29T00:57:38.402Z,0.00
2022-10-29T00:58:38.414Z,0.00
2022-10-29T00:59:38.449Z,0.00
2022-10-29T01:00:38.386Z,0.00
2022-10-29T01:01:38.487Z,0.00
2022-10-29T01:02:38.604Z,0.00
2022-10-29T01:03:38.356Z,0.00
2022-10-29T01:04:38.326Z,0.00
2022-10-29T01:05:38.311Z,0.00
2022-10-29T01:06:38.325Z,0.00
2022-10-29T01:07:38.290Z,0.00
2022-10-29T01:08:38.280Z,0.00
2022-10-29T01:09:38.269Z,0.00
2022-10-29T01:10:38.256Z,0.00
2022-10-29T01:11:38.245Z,0.00
2022-10-29T01:12:38.245Z,0.00
2022-10-29T01:13:38.228Z,0.00
2022-10-29T01:14:38.206Z,0.00
2022-10-29T01:15:38.194Z,0.00
2022-10-29T01:16:38.204Z,0.00
2022-10-29T01:17:38.197Z,0.00
2022-10-29T01:18:38.203Z,0.00
2022-10-29T01:19:38.152Z,0.00
2022-10-29T01:20:38.159Z,0.00
2022-10-29T01:21:38.130Z,0.00
2022-10-29T01:22:38.113Z,0.00
2022-10-29T01:23:38.126Z,0.00
2022-10-29T01:24:38.097Z,0.00
2022-10-29T01:25:38.106Z,0.00
2022-10-29T01:26:38.083Z,0.00
2022-10-29T01:27:38.063Z,0.00
2022-10-29T01:28:38.060Z,0.00
2022-10-29T01:29:38.062Z,0.00
2022-10-29T01:30:38.035Z,0.00
2022-10-29T01:31:38.026Z,0.00
2022-10-29T01:32:38.010Z,0.00
2022-10-29T01:33:38.034Z,0.00
2022-10-29T01:34:38.016Z,0.00
2022-10-29T01:35:37.975Z,0.00
2022-10-29T01:36:37.963Z,0.00
2022-10-29T01:37:37.954Z,0.00
2022-10-29T01:38:37.948Z,0.00
2022-10-29T01:39:37.955Z,0.00
2022-10-29T01:40:37.916Z,0.00
2022-10-29T01:41:37.905Z,0.00
2022-10-29T01:42:37.915Z,0.00
2022-10-29T01:43:37.891Z,0.00
2022-10-29T01:44:37.871Z,0.00
2022-10-29T01:45:37.882Z,0.00
2022-10-29T01:46:37.851Z,0.00
2022-10-29T01:47:37.881Z,0.00
2022-10-29T01:48:37.839Z,0.00
2022-10-29T01:49:37.818Z,0.00
2022-10-29T01:50:45.448Z,0.00
2022-10-29T01:51:37.792Z,0.00
2022-10-29T01:52:37.789Z,0.00
2022-10-29T01:53:37.784Z,0.00
2022-10-29T01:54:37.766Z,0.00
2022-10-29T01:55:37.788Z,0.00
2022-10-29T01:56:37.755Z,0.00
2022-10-29T01:57:37.765Z,0.00
2022-10-29T01:58:37.758Z,0.00
2022-10-29T01:59:51.508Z,0.00
2022-10-29T02:00:37.799Z,0.00
2022-10-29T02:01:37.863Z,0.00
2022-10-29T02:02:38.479Z,0.00
2022-10-29T02:03:37.701Z,0.00
2022-10-29T02:04:37.665Z,0.00
2022-10-29T02:05:37.660Z,0.00
2022-10-29T02:06:37.695Z,0.00
2022-10-29T02:07:37.695Z,0.00
2022-10-29T02:08:37.617Z,0.00
2022-10-29T02:09:37.646Z,0.00
2022-10-29T02:10:37.612Z,0.00
2022-10-29T02:11:37.613Z,0.00
2022-10-29T02:12:37.580Z,0.00
2022-10-29T02:13:37.618Z,0.00
2022-10-29T02:14:37.571Z,0.00
2022-10-29T02:15:37.549Z,0.00
2022-10-29T02:16:37.543Z,0.00
2022-10-29T02:17:37.555Z,0.00
2022-10-29T02:18:37.525Z,0.00
2022-10-29T02:19:37.508Z,0.00
2022-10-29T02:20:37.491Z,0.00
2022-10-29T02:21:37.489Z,0.00
2022-10-29T02:22:37.497Z,0.00
2022-10-29T02:23:37.469Z,0.00
2022-10-29T02:24:37.457Z,0.00
2022-10-29T02:25:37.482Z,0.00
2022-10-29T02:26:37.415Z,0.00
2022-10-29T02:27:37.415Z,0.00
2022-10-29T02:28:37.426Z,0.00
2022-10-29T02:29:37.399Z,0.00
2022-10-29T02:30:37.424Z,0.00
2022-10-29T02:31:37.368Z,0.00
2022-10-29T02:32:37.359Z,0.00
2022-10-29T02:33:37.345Z,0.00
2022-10-29T02:34:37.356Z,0.00
2022-10-29T02:35:37.331Z,0.00
2022-10-29T02:36:37.327Z,0.00
2022-10-29T02:37:37.314Z,0.00
2022-10-29T02:38:37.302Z,0.00
2022-10-29T02:39:37.305Z,0.00
2022-10-29T02:40:37.291Z,0.00
2022-10-29T02:41:37.266Z,0.00
2022-10-29T02:42:37.253Z,0.00
2022-10-29T02:43:37.249Z,0.00
2022-10-29T02:44:37.243Z,0.00
2022-10-29T02:45:37.244Z,0.00
2022-10-29T02:46:37.210Z,0.00
2022-10-29T02:47:37.199Z,0.00
2022-10-29T02:48:37.197Z,0.00
2022-10-29T02:49:37.183Z,0.00
2022-10-29T02:50:37.181Z,0.00
2022-10-29T02:51:37.183Z,0.00
2022-10-29T02:52:37.155Z,0.00
2022-10-29T02:53:37.138Z,0.00
2022-10-29T02:54:37.135Z,0.00
2022-10-29T02:55:37.113Z,0.00
2022-10-29T02:56:37.141Z,0.00
2022-10-29T02:57:37.080Z,0.00
2022-10-29T02:58:37.184Z,0.00
2022-10-29T02:59:37.076Z,0.00
2022-10-29T03:00:37.063Z,0.00
2022-10-29T03:01:37.212Z,0.00
2022-10-29T03:02:37.135Z,0.00
2022-10-29T03:03:37.049Z,0.00
2022-10-29T03:04:37.015Z,0.00
2022-10-29T03:05:37.012Z,0.00
2022-10-29T03:06:37.017Z,0.00
2022-10-29T03:07:37.000Z,0.00
2022-10-29T03:08:36.981Z,0.00
2022-10-29T03:09:36.977Z,0.00
2022-10-29T03:10:36.956Z,0.00
2022-10-29T03:11:36.965Z,0.00
2022-10-29T03:12:36.945Z,0.00
2022-10-29T03:14:35.939Z,0.00
2022-10-29T03:15:36.902Z,0.00
2022-10-29T03:16:36.921Z,0.00
2022-10-29T03:17:36.887Z,0.00
2022-10-29T03:18:36.856Z,0.00
2022-10-29T03:19:36.850Z,0.00
2022-10-29T03:20:36.868Z,0.00
2022-10-29T03:21:36.851Z,0.00
2022-10-29T03:22:36.828Z,0.00
2022-10-29T03:23:36.807Z,0.00
2022-10-29T03:24:36.815Z,0.00
2022-10-29T03:25:36.800Z,0.00
2022-10-29T03:26:36.805Z,0.00
2022-10-29T03:27:36.765Z,0.00
2022-10-29T03:28:36.830Z,0.00
2022-10-29T03:29:36.751Z,0.00
2022-10-29T03:30:36.748Z,0.00
2022-10-29T03:31:36.758Z,0.00
2022-10-29T03:32:36.721Z,0.00
2022-10-29T03:33:36.706Z,0.00
2022-10-29T03:34:36.702Z,0.00
2022-10-29T03:35:36.800Z,0.00
2022-10-29T03:36:36.689Z,0.00
2022-10-29T03:37:36.678Z,0.00
2022-10-29T03:38:36.661Z,0.00
2022-10-29T03:39:36.641Z,0.00
2022-10-29T03:40:36.642Z,0.00
2022-10-29T03:41:36.641Z,0.00
2022-10-29T03:42:36.612Z,0.00
2022-10-29T03:43:36.626Z,0.00
2022-10-29T03:44:36.587Z,0.00
2022-10-29T03:45:36.568Z,0.00
2022-10-29T03:46:36.578Z,0.00
2022-10-29T03:47:36.558Z,0.00
2022-10-29T03:48:36.543Z,0.00
2022-10-29T03:49:36.542Z,0.00
2022-10-29T03:50:36.522Z,0.00
2022-10-29T03:51:36.553Z,0.00
2022-10-29T03:52:36.516Z,0.00
2022-10-29T03:53:36.485Z,0.00
2022-10-29T03:54:36.481Z,0.00
2022-10-29T03:55:36.473Z,0.00
2022-10-29T03:56:36.510Z,0.00
2022-10-29T03:57:36.439Z,0.00
2022-10-29T03:58:36.445Z,0.00
2022-10-29T03:59:36.456Z,0.00
2022-10-29T04:00:36.424Z,0.00
2022-10-29T04:01:36.556Z,0.00
2022-10-29T04:02:36.559Z,0.00
2022-10-29T04:03:36.379Z,0.00
2022-10-29T04:04:36.369Z,0.00
2022-10-29T04:05:36.342Z,0.00
2022-10-29T04:06:36.359Z,0.00
2022-10-29T04:07:36.334Z,0.00
2022-10-29T04:08:36.318Z,0.00
2022-10-29T04:09:36.333Z,0.00
2022-10-29T04:10:36.351Z,0.00
2022-10-29T04:11:36.313Z,0.00
2022-10-29T04:12:36.283Z,0.00
2022-10-29T04:13:36.276Z,0.00
2022-10-29T04:14:39.993Z,0.00
2022-10-29T04:15:36.255Z,0.00
2022-10-29T04:16:36.250Z,0.00
2022-10-29T04:17:36.230Z,0.00
2022-10-29T04:18:36.218Z,0.00
2022-10-29T04:19:36.206Z,0.00
2022-10-29T04:20:54.276Z,0.00
2022-10-29T04:28:44.126Z,0.00
2022-10-29T04:29:36.099Z,0.00
2022-10-29T04:30:36.208Z,0.00
2022-10-29T04:31:36.071Z,0.00
2022-10-29T04:32:36.215Z,0.00
2022-10-29T04:33:36.058Z,0.00
2022-10-29T04:34:36.064Z,0.00
2022-10-29T04:35:36.046Z,0.00
2022-10-29T04:36:36.038Z,0.00
2022-10-29T04:37:36.000Z,0.00
2022-10-29T04:38:36.014Z,0.00
2022-10-29T04:39:35.988Z,0.00
2022-10-29T04:40:35.983Z,0.00
2022-10-29T04:41:35.982Z,0.00
2022-10-29T04:42:35.966Z,0.00
2022-10-29T04:43:35.968Z,0.00
2022-10-29T04:44:35.933Z,0.00
2022-10-29T04:45:35.965Z,0.00
2022-10-29T04:46:35.920Z,0.00
2022-10-29T04:47:35.894Z,0.00
2022-10-29T04:48:35.960Z,0.00
2022-10-29T04:49:35.911Z,0.00
2022-10-29T04:50:35.860Z,0.00
2022-10-29T04:51:35.874Z,0.00
2022-10-29T04:52:35.844Z,0.00
2022-10-29T04:53:35.998Z,0.00
2022-10-29T04:54:35.841Z,0.00
2022-10-29T04:55:35.826Z,0.00
2022-10-29T04:56:35.812Z,0.00
2022-10-29T04:57:35.793Z,0.00
2022-10-29T04:58:35.807Z,0.00
2022-10-29T04:59:35.812Z,0.00
2022-10-29T05:00:35.809Z,0.00
2022-10-29T05:02:35.746Z,0.00
2022-10-29T05:03:35.752Z,0.00
2022-10-29T05:04:35.724Z,0.00
2022-10-29T05:05:35.700Z,0.00
2022-10-29T05:06:35.699Z,0.00
2022-10-29T05:07:35.749Z,0.00
2022-10-29T05:08:35.698Z,0.00
2022-10-29T05:09:35.661Z,0.00
2022-10-29T05:10:35.653Z,0.00
2022-10-29T05:11:35.644Z,0.00
2022-10-29T05:12:35.628Z,0.00
2022-10-29T05:13:35.631Z,0.00
2022-10-29T05:14:35.618Z,0.00
2022-10-29T05:15:35.599Z,0.00
2022-10-29T05:16:35.586Z,0.00
2022-10-29T05:17:35.588Z,0.00
2022-10-29T05:18:35.594Z,0.00
2022-10-29T05:19:35.551Z,0.00
2022-10-29T05:20:35.548Z,0.00
2022-10-29T05:21:35.541Z,0.00
2022-10-29T05:22:35.518Z,0.00
2022-10-29T05:23:35.536Z,0.00
2022-10-29T05:24:35.491Z,0.00
2022-10-29T05:25:35.553Z,0.00
2022-10-29T05:26:35.486Z,0.00
2022-10-29T05:27:35.502Z,0.00
2022-10-29T05:28:35.483Z,0.00
2022-10-29T05:29:35.454Z,0.00
2022-10-29T05:30:35.471Z,0.00
2022-10-29T05:31:35.427Z,0.00
2022-10-29T05:33:34.409Z,0.00
2022-10-29T05:34:35.811Z,0.00
2022-10-29T05:35:35.375Z,0.00
2022-10-29T05:36:35.370Z,0.00
2022-10-29T05:37:35.493Z,0.00
2022-10-29T05:38:35.367Z,0.00
2022-10-29T05:39:35.346Z,0.00
2022-10-29T05:40:35.324Z,0.00
2022-10-29T05:41:35.311Z,0.00
2022-10-29T05:42:35.314Z,0.00
2022-10-29T05:43:35.315Z,0.00
2022-10-29T05:44:35.272Z,0.00
2022-10-29T05:45:35.286Z,0.00
2022-10-29T05:46:35.268Z,0.00
2022-10-29T05:47:35.248Z,4.00
2022-10-29T05:48:35.277Z,4.00
2022-10-29T05:49:35.228Z,4.00
2022-10-29T05:50:35.231Z,4.00
2022-10-29T05:51:35.216Z,4.00
2022-10-29T05:52:35.202Z,4.00
2022-10-29T05:53:35.199Z,4.00
2022-10-29T05:54:35.227Z,4.00
2022-10-29T05:55:35.160Z,8.00
2022-10-29T05:56:35.153Z,12.00
2022-10-29T05:57:35.147Z,12.00
2022-10-29T05:58:35.153Z,12.00
2022-10-29T05:59:35.119Z,16.00
2022-10-29T06:00:35.118Z,16.00
2022-10-29T06:01:35.232Z,20.00
2022-10-29T06:02:35.201Z,24.00
2022-10-29T06:03:35.090Z,24.00
2022-10-29T06:04:35.079Z,28.00
2022-10-29T06:05:35.054Z,32.00
2022-10-29T06:06:35.199Z,36.00
2022-10-29T06:07:35.041Z,40.00
2022-10-29T06:08:35.025Z,48.00
2022-10-29T06:09:35.047Z,52.00
2022-10-29T06:10:35.010Z,56.00
2022-10-29T06:11:34.985Z,64.00
2022-10-29T06:12:35.121Z,68.00
2022-10-29T06:13:34.956Z,76.00
2022-10-29T06:14:34.982Z,84.00
2022-10-29T06:15:34.951Z,92.00
2022-10-29T06:16:34.946Z,96.00
2022-10-29T06:17:34.923Z,100.00
2022-10-29T06:18:34.915Z,104.00
2022-10-29T06:19:34.962Z,112.00
2022-10-29T06:20:34.882Z,120.00
2022-10-29T06:21:34.911Z,124.00
2022-10-29T06:22:35.033Z,132.00
2022-10-29T06:23:34.890Z,136.00
2022-10-29T06:24:34.858Z,140.00
2022-10-29T06:25:34.838Z,144.00
2022-10-29T06:26:34.854Z,148.00
2022-10-29T06:27:34.827Z,152.00
2022-10-29T06:28:35.079Z,152.00
2022-10-29T06:29:34.793Z,152.00
2022-10-29T06:30:34.811Z,156.00
2022-10-29T06:31:34.761Z,164.00
2022-10-29T06:32:34.782Z,164.00
2022-10-29T06:33:34.731Z,164.00
2022-10-29T06:34:34.756Z,164.00
2022-10-29T06:36:34.725Z,168.00
2022-10-29T06:37:34.707Z,168.00
2022-10-29T06:38:34.687Z,164.00
2022-10-29T06:39:34.739Z,168.00
2022-10-29T06:40:34.660Z,180.00
2022-10-29T06:41:34.648Z,192.00
2022-10-29T06:42:34.720Z,200.00
2022-10-29T06:43:34.616Z,244.00
2022-10-29T06:44:34.632Z,284.00
2022-10-29T06:45:34.602Z,276.00
2022-10-29T06:46:34.607Z,272.00
2022-10-29T06:47:34.591Z,252.00
2022-10-29T06:48:34.583Z,248.00
2022-10-29T06:49:34.572Z,248.00
2022-10-29T06:50:34.550Z,252.00
2022-10-29T06:51:34.547Z,268.00
2022-10-29T06:52:34.530Z,300.00
2022-10-29T06:53:34.520Z,312.00
2022-10-29T06:54:34.537Z,308.00
2022-10-29T06:55:34.507Z,320.00
2022-10-29T06:56:34.486Z,364.00
2022-10-29T06:57:34.519Z,332.00
2022-10-29T06:58:34.469Z,320.00
2022-10-29T06:59:34.500Z,396.00
2022-10-29T07:00:34.598Z,384.00
2022-10-29T07:01:34.479Z,380.00
2022-10-29T07:02:35.493Z,424.00
2022-10-29T07:03:34.426Z,428.00
2022-10-29T07:04:34.458Z,464.00
2022-10-29T07:05:34.392Z,496.00
2022-10-29T07:06:34.396Z,548.00
2022-10-29T07:07:34.501Z,556.00
2022-10-29T07:08:34.366Z,572.00
2022-10-29T07:09:34.347Z,592.00
2022-10-29T07:10:34.382Z,628.00
2022-10-29T07:11:34.351Z,652.00
2022-10-29T07:12:34.315Z,664.00
2022-10-29T07:13:34.349Z,672.00
2022-10-29T07:14:34.292Z,652.00
2022-10-29T07:15:34.289Z,592.00
2022-10-29T07:16:34.310Z,624.00
2022-10-29T07:17:34.252Z,656.00
2022-10-29T07:18:34.250Z,720.00
2022-10-29T07:19:34.253Z,760.00
2022-10-29T07:20:34.237Z,788.00
2022-10-29T07:21:34.293Z,816.00
2022-10-29T07:22:34.992Z,816.00
2022-10-29T07:23:34.196Z,800.00
2022-10-29T07:24:34.196Z,788.00
2022-10-29T07:25:34.172Z,776.00
2022-10-29T07:26:34.181Z,772.00
2022-10-29T07:27:34.259Z,796.00
2022-10-29T07:28:34.154Z,820.00
2022-10-29T07:29:34.160Z,856.00
2022-10-29T07:30:34.123Z,892.00
2022-10-29T07:31:34.128Z,948.00
2022-10-29T07:32:34.097Z,980.00
2022-10-29T07:33:34.085Z,988.00
2022-10-29T07:34:34.103Z,1064.00
2022-10-29T07:35:34.060Z,1092.00
2022-10-29T07:36:34.073Z,1112.00
2022-10-29T07:37:34.119Z,1160.00
2022-10-29T07:38:34.083Z,1264.00
2022-10-29T07:39:34.049Z,1240.00
2022-10-29T07:40:34.041Z,1192.00
2022-10-29T07:41:33.997Z,1152.00
2022-10-29T07:42:33.996Z,1180.00
2022-10-29T07:43:34.002Z,1192.00
2022-10-29T07:44:33.984Z,1204.00
2022-10-29T07:45:33.991Z,1208.00
2022-10-29T07:46:34.012Z,1188.00
2022-10-29T07:47:33.971Z,1208.00
2022-10-29T07:48:33.970Z,1240.00
2022-10-29T07:49:33.928Z,1304.00
2022-10-29T07:50:33.899Z,1376.00
2022-10-29T07:51:41.514Z,1416.00
2022-10-29T07:52:33.878Z,1472.00
2022-10-29T07:53:33.877Z,1508.00
2022-10-29T07:54:33.870Z,1552.00
2022-10-29T07:55:34.008Z,1596.00
2022-10-29T07:56:33.854Z,1592.00
2022-10-29T07:57:33.867Z,1564.00
2022-10-29T07:58:33.821Z,1552.00
2022-10-29T07:59:33.808Z,1568.00
2022-10-29T08:00:35.067Z,1548.00
2022-10-29T08:01:33.979Z,1592.00
2022-10-29T08:02:33.779Z,1488.00
2022-10-29T08:03:33.782Z,1452.00
2022-10-29T08:04:33.773Z,1376.00
2022-10-29T08:05:33.752Z,1316.00
2022-10-29T08:06:34.117Z,1356.00
2022-10-29T08:07:33.713Z,1336.00
2022-10-29T08:08:33.722Z,1296.00
2022-10-29T08:09:33.765Z,1252.00
2022-10-29T08:10:33.760Z,1288.00
2022-10-29T08:11:33.706Z,1360.00
2022-10-29T08:12:33.669Z,1356.00
2022-10-29T08:13:33.658Z,1300.00
2022-10-29T08:14:33.634Z,1212.00
2022-10-29T08:15:33.654Z,1212.00
2022-10-29T08:16:33.620Z,1136.00
2022-10-29T08:17:33.617Z,1140.00
2022-10-29T08:18:33.606Z,1120.00
2022-10-29T08:19:33.589Z,1156.00
2022-10-29T08:20:33.581Z,1160.00
2022-10-29T08:21:33.582Z,1184.00
2022-10-29T08:22:33.581Z,1208.00
2022-10-29T08:23:33.684Z,1224.00
2022-10-29T08:24:33.547Z,1248.00
2022-10-29T08:25:33.613Z,1312.00
2022-10-29T08:26:33.502Z,1380.00
2022-10-29T08:27:33.533Z,1424.00
2022-10-29T08:28:35.854Z,1464.00
2022-10-29T08:29:33.476Z,1472.00
2022-10-29T08:30:33.461Z,1480.00
2022-10-29T08:31:33.486Z,1488.00
2022-10-29T08:32:33.456Z,1496.00
2022-10-29T08:33:33.453Z,1536.00
2022-10-29T08:34:33.437Z,1616.00
2022-10-29T08:35:33.436Z,1632.00
2022-10-29T08:36:33.415Z,1588.00
2022-10-29T08:37:33.394Z,1460.00
2022-10-29T08:38:33.412Z,1444.00
2022-10-29T08:39:33.389Z,1464.00
2022-10-29T08:40:33.642Z,1452.00
2022-10-29T08:41:33.345Z,1460.00
2022-10-29T08:42:33.340Z,1576.00
2022-10-29T08:43:33.378Z,1560.00
2022-10-29T08:44:33.327Z,1532.00
2022-10-29T08:45:33.320Z,1552.00
2022-10-29T08:46:33.309Z,1624.00
2022-10-29T08:47:33.272Z,1728.00
2022-10-29T08:48:33.275Z,1768.00
2022-10-29T08:49:33.283Z,1812.00
2022-10-29T08:50:33.251Z,1908.00
2022-10-29T08:51:33.274Z,1984.00
2022-10-29T08:52:33.221Z,2040.00
2022-10-29T08:53:33.851Z,1992.00
2022-10-29T08:54:33.214Z,2008.00
2022-10-29T08:55:33.198Z,1820.00
2022-10-29T08:56:33.195Z,1800.00
2022-10-29T08:57:33.185Z,1808.00
2022-10-29T08:58:33.176Z,1760.00
2022-10-29T08:59:33.145Z,1704.00
2022-10-29T09:00:33.155Z,1660.00
2022-10-29T09:01:33.205Z,1560.00
2022-10-29T09:02:33.135Z,1468.00
2022-10-29T09:03:33.130Z,1432.00
2022-10-29T09:04:33.110Z,1392.00
2022-10-29T09:05:33.096Z,1344.00
2022-10-29T09:06:33.082Z,1360.00
2022-10-29T09:07:33.070Z,1376.00
2022-10-29T09:08:33.086Z,1408.00
2022-10-29T09:09:33.061Z,1472.00
2022-10-29T09:10:33.019Z,1484.00
2022-10-29T09:11:33.013Z,1484.00
2022-10-29T09:12:33.017Z,1568.00
2022-10-29T09:13:33.011Z,1584.00
2022-10-29T09:14:32.984Z,1548.00
2022-10-29T09:15:33.056Z,1488.00
2022-10-29T09:16:33.011Z,1460.00
2022-10-29T09:17:32.952Z,1488.00
2022-10-29T09:18:32.944Z,1520.00
2022-10-29T09:19:32.919Z,2172.00
2022-10-29T09:20:32.966Z,3820.00
2022-10-29T09:21:32.973Z,3936.00
2022-10-29T09:22:32.906Z,3852.00
2022-10-29T09:23:32.869Z,1992.00
2022-10-29T09:24:32.875Z,3376.00
2022-10-29T09:25:32.848Z,3464.00
2022-10-29T09:26:32.859Z,3500.00
2022-10-29T09:27:32.854Z,3548.00
2022-10-29T09:28:32.817Z,3508.00
2022-10-29T09:29:32.815Z,3568.00
2022-10-29T09:30:32.801Z,3532.00
2022-10-29T09:31:32.786Z,3612.00
2022-10-29T09:32:32.786Z,3764.00
2022-10-29T09:33:32.804Z,3792.00
2022-10-29T09:34:32.770Z,4060.00
2022-10-29T09:35:32.768Z,4184.00
2022-10-29T09:36:32.750Z,4488.00
2022-10-29T09:37:32.750Z,3316.00
2022-10-29T09:38:32.743Z,2828.00
2022-10-29T09:39:34.300Z,2772.00
2022-10-29T09:40:32.696Z,2888.00
2022-10-29T09:41:32.677Z,2964.00
2022-10-29T09:42:33.631Z,3176.00
2022-10-29T09:43:32.649Z,3112.00
2022-10-29T09:44:32.664Z,3056.00
2022-10-29T09:45:32.637Z,3040.00
2022-10-29T09:46:32.763Z,3080.00
2022-10-29T09:47:32.700Z,3096.00
2022-10-29T09:48:32.599Z,2888.00
2022-10-29T09:49:32.612Z,2608.00
2022-10-29T09:50:32.696Z,2576.00
2022-10-29T09:51:32.594Z,2580.00
2022-10-29T09:52:32.566Z,2584.00
2022-10-29T09:53:32.584Z,2764.00
2022-10-29T09:54:32.648Z,3116.00
2022-10-29T09:55:32.520Z,3340.00
2022-10-29T09:56:32.513Z,3460.00
2022-10-29T09:57:32.512Z,3488.00
2022-10-29T09:58:32.492Z,3424.00
2022-10-29T09:59:32.515Z,3564.00
2022-10-29T10:00:32.469Z,3644.00
2022-10-29T10:01:32.599Z,3524.00
2022-10-29T10:02:32.495Z,3392.00
2022-10-29T10:03:32.429Z,3396.00
2022-10-29T10:04:32.445Z,3476.00
2022-10-29T10:05:32.404Z,3608.00
2022-10-29T10:06:32.396Z,3804.00
2022-10-29T10:07:32.407Z,3796.00
2022-10-29T10:08:32.933Z,4056.00
2022-10-29T10:09:32.387Z,3764.00
2022-10-29T10:10:32.355Z,3664.00
2022-10-29T10:11:32.354Z,3836.00
2022-10-29T10:12:32.472Z,3672.00
2022-10-29T10:13:32.389Z,3572.00
2022-10-29T10:14:32.333Z,3580.00
2022-10-29T10:15:32.288Z,3916.00
2022-10-29T10:16:33.031Z,4680.00
2022-10-29T10:17:32.282Z,4128.00
2022-10-29T10:18:32.331Z,4520.00
2022-10-29T10:19:32.287Z,4288.00
2022-10-29T10:20:32.264Z,4260.00
2022-10-29T10:21:32.274Z,4152.00
2022-10-29T10:22:32.229Z,4468.00
2022-10-29T10:23:32.219Z,4824.00
2022-10-29T10:24:32.228Z,5152.00
2022-10-29T10:25:32.273Z,5268.00
2022-10-29T10:26:32.206Z,4920.00
2022-10-29T10:27:32.207Z,4868.00
2022-10-29T10:28:32.222Z,4936.00
2022-10-29T10:29:32.175Z,5188.00
2022-10-29T10:30:32.159Z,4856.00
2022-10-29T10:31:32.198Z,4700.00
2022-10-29T10:32:32.140Z,5196.00
2022-10-29T10:33:32.103Z,4964.00
2022-10-29T10:34:32.130Z,5028.00
2022-10-29T10:35:32.092Z,4972.00
2022-10-29T10:36:32.090Z,5328.00
2022-10-29T10:37:32.067Z,5200.00
2022-10-29T10:38:32.065Z,4836.00
2022-10-29T10:39:32.285Z,4968.00
2022-10-29T10:40:32.039Z,4932.00
2022-10-29T10:41:32.047Z,5100.00
2022-10-29T10:42:32.011Z,5284.00
2022-10-29T10:43:32.983Z,5440.00
2022-10-29T10:44:32.012Z,5668.00
2022-10-29T10:45:31.977Z,5560.00
2022-10-29T10:46:32.009Z,4916.00
2022-10-29T10:47:31.959Z,4808.00
2022-10-29T10:48:33.963Z,4736.00
2022-10-29T10:49:31.964Z,4648.00
2022-10-29T10:50:31.919Z,4440.00
2022-10-29T10:51:31.901Z,4196.00
2022-10-29T10:52:31.910Z,4052.00
2022-10-29T10:53:31.889Z,3908.00
2022-10-29T10:54:31.959Z,3748.00
2022-10-29T10:55:31.930Z,3696.00
2022-10-29T10:56:31.939Z,3620.00
2022-10-29T10:57:31.846Z,3612.00
2022-10-29T10:58:31.839Z,3732.00
2022-10-29T10:59:31.842Z,3888.00
2022-10-29T11:00:31.824Z,3980.00
2022-10-29T11:01:32.057Z,4064.00
2022-10-29T11:02:31.849Z,4460.00
2022-10-29T11:03:31.802Z,4576.00
2022-10-29T11:04:31.836Z,4636.00
2022-10-29T11:05:31.789Z,4684.00
2022-10-29T11:06:31.752Z,4616.00
2022-10-29T11:07:31.776Z,4544.00
2022-10-29T11:08:31.753Z,4492.00
2022-10-29T11:09:31.715Z,4284.00
2022-10-29T11:10:31.858Z,4128.00
2022-10-29T11:11:31.701Z,3944.00
2022-10-29T11:12:31.704Z,3920.00
2022-10-29T11:13:31.669Z,3992.00
2022-10-29T11:14:31.667Z,4168.00
2022-10-29T11:15:31.673Z,4384.00
2022-10-29T11:16:31.652Z,4532.00
2022-10-29T11:17:31.632Z,4744.00
2022-10-29T11:18:31.627Z,4968.00
2022-10-29T11:19:34.294Z,4876.00
2022-10-29T11:20:31.628Z,4688.00
2022-10-29T11:21:31.592Z,4488.00
2022-10-29T11:22:31.585Z,4276.00
2022-10-29T11:23:31.582Z,4080.00
2022-10-29T11:24:31.553Z,4008.00
2022-10-29T11:25:31.572Z,3996.00
2022-10-29T11:26:31.548Z,3932.00
2022-10-29T11:27:31.517Z,3792.00
2022-10-29T11:28:31.538Z,3652.00
2022-10-29T11:29:31.535Z,3532.00
2022-10-29T11:30:31.499Z,3476.00
2022-10-29T11:31:31.478Z,3508.00
2022-10-29T11:32:31.885Z,3516.00
2022-10-29T11:33:31.451Z,3576.00
2022-10-29T11:34:31.454Z,3648.00
2022-10-29T11:35:31.446Z,3660.00
2022-10-29T11:36:31.424Z,3640.00
2022-10-29T11:37:31.420Z,3528.00
2022-10-29T11:38:31.401Z,3448.00
2022-10-29T11:39:31.404Z,3496.00
2022-10-29T11:40:31.387Z,3580.00
2022-10-29T11:41:31.364Z,3800.00
2022-10-29T11:42:31.370Z,4080.00
2022-10-29T11:43:31.343Z,4392.00
2022-10-29T11:44:31.336Z,4680.00
2022-10-29T11:45:31.348Z,4844.00
2022-10-29T11:46:31.324Z,4980.00
2022-10-29T11:47:31.283Z,5120.00
2022-10-29T11:48:31.309Z,5300.00
2022-10-29T11:49:31.282Z,5364.00
2022-10-29T11:50:31.286Z,5344.00
2022-10-29T11:51:31.255Z,5300.00
2022-10-29T11:52:34.748Z,5176.00
2022-10-29T11:53:31.238Z,4976.00
2022-10-29T11:54:31.238Z,4892.00
2022-10-29T11:55:31.237Z,4848.00
2022-10-29T11:56:31.202Z,4644.00
2022-10-29T11:57:31.187Z,4392.00
2022-10-29T11:58:32.018Z,4216.00
2022-10-29T11:59:31.176Z,4080.00
2022-10-29T12:00:31.170Z,4008.00
2022-10-29T12:01:31.268Z,4004.00
2022-10-29T12:02:31.142Z,3940.00
2022-10-29T12:03:31.172Z,3744.00
2022-10-29T12:04:31.127Z,3508.00
2022-10-29T12:05:31.126Z,3340.00
2022-10-29T12:06:31.124Z,3268.00
2022-10-29T12:07:31.092Z,3344.00
2022-10-29T12:08:31.086Z,3564.00
2022-10-29T12:09:31.103Z,3692.00
2022-10-29T12:10:31.076Z,3944.00
2022-10-29T12:11:31.039Z,4148.00
2022-10-29T12:12:31.042Z,4424.00
2022-10-29T12:13:31.008Z,4612.00
2022-10-29T12:14:31.015Z,4576.00
2022-10-29T12:15:31.020Z,4676.00
2022-10-29T12:16:31.001Z,4604.00
2022-10-29T12:17:30.989Z,4416.00
2022-10-29T12:18:30.979Z,4128.00
2022-10-29T12:19:30.946Z,3920.00
2022-10-29T12:20:30.973Z,3744.00
2022-10-29T12:21:30.931Z,3636.00
2022-10-29T12:22:30.934Z,3544.00
2022-10-29T12:23:30.917Z,3424.00
2022-10-29T12:24:30.901Z,3276.00
2022-10-29T12:25:30.958Z,3096.00
2022-10-29T12:26:30.876Z,3032.00
2022-10-29T12:27:30.864Z,3000.00
2022-10-29T12:28:30.862Z,2916.00
2022-10-29T12:29:30.842Z,2828.00
2022-10-29T12:30:30.945Z,2888.00
2022-10-29T12:31:30.832Z,2920.00
2022-10-29T12:32:30.811Z,2864.00
2022-10-29T12:33:30.802Z,2800.00
2022-10-29T12:34:30.793Z,2824.00
2022-10-29T12:35:30.789Z,2980.00
2022-10-29T12:36:30.776Z,3160.00
2022-10-29T12:37:30.783Z,3268.00
2022-10-29T12:38:30.747Z,3252.00
2022-10-29T12:39:30.720Z,3188.00
2022-10-29T12:40:30.742Z,3184.00
2022-10-29T12:41:30.723Z,3236.00
2022-10-29T12:42:30.708Z,3268.00
2022-10-29T12:43:30.760Z,3244.00
2022-10-29T12:44:30.680Z,3236.00
2022-10-29T12:45:30.698Z,3104.00
2022-10-29T12:46:30.654Z,2948.00
2022-10-29T12:47:30.637Z,3016.00
2022-10-29T12:48:30.641Z,3432.00
2022-10-29T12:49:30.619Z,4252.00
2022-10-29T12:50:30.636Z,4904.00
2022-10-29T12:51:30.598Z,4820.00
2022-10-29T12:52:30.581Z,4660.00